Terminal Aerodrome Forecast
Issued by NWS Jackson, KY

Home | Current Version | Previous Version | Text Only | Print | Product List | Glossary On
Versions: 1 2 3 4 5 6 7 8 9 10 11 12 13 14 15 16 17 18 19 20
000
FTUS43 KJKL 191700
TAFLOZ
TAF
KLOZ 191728Z 1918/2018 27006KT P6SM BKN050
     FM200400 00000KT 5SM BR SCT050
     FM200800 00000KT 1SM BR SCT008
     FM201400 25007KT P6SM BKN025=

USA.gov is the U.S. government's official web portal to all federal, state and local government web resources and services.